createdAt,value
2018-04-23T00:00:27.566Z,13.63
2018-04-23T00:02:57.305Z,14.10
2018-04-23T00:05:27.385Z,13.90
2018-04-23T00:07:57.260Z,13.77
2018-04-23T00:10:27.755Z,13.97
2018-04-23T00:12:57.502Z,14.25
2018-04-23T00:15:28.001Z,13.90
2018-04-23T00:17:57.808Z,15.13
2018-04-23T00:20:27.678Z,14.10
2018-04-23T00:22:57.533Z,14.83
2018-04-23T00:25:28.723Z,14.60
2018-04-23T00:27:58.497Z,14.20
2018-04-23T00:30:28.334Z,14.25
2018-04-23T00:32:59.363Z,13.73
2018-04-23T00:35:30.113Z,14.27
2018-04-23T00:38:00.821Z,13.40
2018-04-23T00:43:10.708Z,13.90
2018-04-23T00:45:41.374Z,13.10
2018-04-23T00:48:11.261Z,13.23
2018-04-23T00:50:41.184Z,13.40
2018-04-23T00:53:22.176Z,12.93
2018-04-23T00:55:52.282Z,12.20
2018-04-23T00:58:22.731Z,13.00
2018-04-23T01:00:52.458Z,11.20
2018-04-23T01:03:22.209Z,11.23
2018-04-23T01:05:52.714Z,9.70
2018-04-23T01:08:22.491Z,12.03
2018-04-23T01:10:53.225Z,11.65
2018-04-23T01:13:22.975Z,10.33
2018-04-23T01:15:53.631Z,10.57
2018-04-23T01:18:24.256Z,11.20
2018-04-23T01:20:54.901Z,10.57
2018-04-23T01:23:24.759Z,10.63
2018-04-23T01:25:54.464Z,9.98
2018-04-23T01:28:24.688Z,11.10
2018-04-23T01:30:54.549Z,9.32
2018-04-23T01:33:24.286Z,11.30
2018-04-23T01:35:54.054Z,10.68
2018-04-23T01:38:24.886Z,10.90
2018-04-23T01:40:55.521Z,11.35
2018-04-23T01:43:26.165Z,11.50
2018-04-23T01:45:55.998Z,11.15
2018-04-23T01:48:25.820Z,11.22
2018-04-23T01:50:55.677Z,11.52
2018-04-23T01:53:25.388Z,8.75
2018-04-23T01:55:55.161Z,9.93
2018-04-23T01:58:25.057Z,8.70
2018-04-23T02:00:55.162Z,11.68
2018-04-23T02:03:25.015Z,9.67
2018-04-23T02:05:54.742Z,9.75
2018-04-23T02:08:24.608Z,9.50
2018-04-23T02:10:54.490Z,10.00
2018-04-23T02:13:25.255Z,8.60
2018-04-23T02:15:54.942Z,10.15
2018-04-23T02:18:25.796Z,9.50
2018-04-23T02:20:55.679Z,8.87
2018-04-23T02:23:26.151Z,8.97
2018-04-23T02:25:55.906Z,7.60
2018-04-23T02:28:25.752Z,7.90
2018-04-23T02:30:56.228Z,8.90
2018-04-23T02:33:25.974Z,9.97
2018-04-23T02:35:56.547Z,8.52
2018-04-23T02:38:26.397Z,8.50
2018-04-23T02:40:56.152Z,8.90
2018-04-23T02:43:25.834Z,8.37
2018-04-23T02:45:56.493Z,8.37
2018-04-23T02:48:26.361Z,8.00
2018-04-23T02:50:57.294Z,6.93
2018-04-23T02:53:26.930Z,7.73
2018-04-23T02:55:57.515Z,6.80
2018-04-23T02:58:27.267Z,7.10
2018-04-23T03:00:57.039Z,7.00
2018-04-23T03:03:27.594Z,6.27
2018-04-23T03:05:57.345Z,6.75
2018-04-23T03:08:27.108Z,6.10
2018-04-23T03:10:56.973Z,7.30
2018-04-23T03:13:26.645Z,7.53
2018-04-23T03:15:57.560Z,7.12
2018-04-23T03:18:27.315Z,6.90
2018-04-23T03:20:58.000Z,6.50
2018-04-23T03:23:27.867Z,6.23
2018-04-23T03:25:57.714Z,6.13
2018-04-23T03:28:27.567Z,5.67
2018-04-23T22:56:46.429Z,14.40
2018-04-23T22:59:17.934Z,15.43
2018-04-23T23:01:47.639Z,14.97
2018-04-23T23:04:17.483Z,13.87
2018-04-23T23:06:47.983Z,14.37
2018-04-23T23:09:17.885Z,14.93
2018-04-23T23:11:47.961Z,13.97
2018-04-23T23:14:18.485Z,14.73
2018-04-23T23:16:49.694Z,14.53
2018-04-23T23:19:19.406Z,14.13
2018-04-23T23:21:49.292Z,14.73
2018-04-23T23:24:19.223Z,15.60
2018-04-23T23:26:49.196Z,15.80
2018-04-23T23:29:19.529Z,15.17
2018-04-23T23:31:49.421Z,16.50
2018-04-23T23:34:19.985Z,16.07
2018-04-23T23:36:50.075Z,15.63
2018-04-23T23:39:19.769Z,15.50
2018-04-23T23:41:50.327Z,17.73
2018-04-23T23:44:20.223Z,17.57
2018-04-23T23:46:51.059Z,18.48
2018-04-23T23:49:21.696Z,16.53
2018-04-23T23:51:51.538Z,16.50
2018-04-23T23:54:21.334Z,16.30
2018-04-23T23:56:51.172Z,17.33
2018-04-23T23:59:20.903Z,16.77
